Flight Track Log - Related Links

Times and Time Zones

All times are in EDT time to prevent confusion due to time zone crossing. See the GJS3710 flight status page for this flight to view local times or setup timezone preferences in your user account.

Time Position Orientation Groundspeed Altitude Reporting Facility
EDT Latitude Longitude Course Direction KTS MPH feet Rate Location/Type
Tue 18:16:03 39.8833 -104.5833 77° East 185 213 6,900  Level Denver TRACON
Tue 18:17:03 39.9000 -104.5000 75° East 253 291 8,300 1,550 Climbing Denver TRACON
Tue 18:18:03 39.9167 -104.4000 78° East 299 344 10,000 2,000 Climbing Denver TRACON
Tue 18:19:03 39.9000 -104.2833 101° East 308 354 12,300 2,256 Climbing Denver TRACON
Tue 18:20:16 39.8867 -104.1411 97° East 327 376 15,000 2,000 Climbing Denver Center
Tue 18:21:00 40.0538 -103.5126 77° East  Level FlightAware Approximate
Tue 18:21:18 39.8714 -104.0139 99° East 357 411 16,800  Level Denver Center
Tue 18:22:20 39.8544 -103.8714 99° East 365 420 18,900 1,645 Climbing Denver Center
Tue 18:23:22 39.8372 -103.7306 99° East 391 450 20,200 1,403 Climbing Denver Center
Tue 18:24:24 39.8192 -103.5856 99° East 403 464 21,800 1,645 Climbing Denver Center
Tue 18:25:26 39.7831 -103.4411 108° East 412 474 23,600 1,548 Climbing Denver Center
Tue 18:26:28 39.7375 -103.2994 113° Southeast 419 482 25,000 1,210 Climbing Denver Center
Tue 18:27:30 39.6917 -103.1539 112° Southeast 427 491 26,100 1,113 Climbing Denver Center
Tue 18:28:32 39.6458 -103.0050 112° Southeast 436 502 27,300 1,113 Climbing Denver Center
Tue 18:29:34 39.5942 -102.8569 114° Southeast 442 509 28,400 1,113 Climbing Denver Center
Tue 18:30:36 39.5439 -102.7061 113° Southeast 451 519 29,600 1,161 Climbing Denver Center
Tue 18:31:38 39.4858 -102.5303 113° Southeast 451 519 30,800 919 Climbing Denver Center
Tue 18:32:40 39.4375 -102.3769 112° Southeast 455 524 31,500 484 Climbing Denver Center
Tue 18:33:42 39.4389 -102.2039 89° East 471 542 31,800 339 Climbing Denver Center
Tue 18:34:44 39.4914 -102.0517 66° East 484 557 32,200 677 Climbing Denver Center
Tue 18:35:46 39.5547 -101.8733 65° Northeast 489 563 33,200 871 Climbing Denver Center
Tue 18:36:48 39.6092 -101.7225 65° Northeast 485 558 34,000 823 Climbing Denver Center
Tue 18:37:50 39.6722 -101.5456 65° Northeast 486 559 34,900 871 Climbing Denver Center
Tue 18:38:52 39.7253 -101.3958 65° Northeast 478 550 35,800 823 Climbing Denver Center
Tue 18:39:54 39.7867 -101.2200 66° East 480 552 36,600 581 Climbing Denver Center
Tue 18:40:56 39.8383 -101.0703 66° East 476 548 37,000 129 Climbing Denver Center
Tue 18:42:00 39.8730 -100.9137 74° East  Level FlightAware Approximate
Tue 18:43:00 39.9525 -100.7417 74° East 483 556 37,000  Level Denver Center
Tue 18:44:02 40.0058 -100.5875 66° East 487 560 37,000  Level Denver Center
Tue 18:45:03 40.0661 -100.4100 66° East 482 555 37,000  Level Denver Center
Tue 18:46:05 40.1183 -100.2558 66° East 485 558 37,000  Level Denver Center
Tue 18:47:07 40.1792 -100.0761 66° East 488 562 37,000  Level Denver Center
Tue 18:48:09 40.2306 -99.9214 66° East 487 560 37,000  Level Denver Center
Tue 18:49:11 40.2903 -99.7433 66° East 483 556 37,000  Level Denver Center
Tue 18:50:13 40.3444 -99.5808 66° East 486 559 37,000  Level Denver Center
Tue 18:51:15 40.3978 -99.4192 67° East 485 558 37,000  Level Denver Center
Tue 18:52:16 40.4508 -99.2586 66° East 483 556 37,000  Level Denver Center
Tue 18:53:18 40.5019 -99.0983 67° East 479 551 37,000  Level Denver Center
Tue 18:53:54 40.5333 -99.0053 66° East 476 548 37,000  Level Minneapolis Center
Tue 18:54:56 40.5931 -98.8164 67° East 471 542 37,000  Level Minneapolis Center
Tue 18:55:58 40.6436 -98.6597 67° East 469 540 37,000  Level Minneapolis Center
Tue 18:57:00 40.6928 -98.5028 68° East 468 539 37,000  Level Minneapolis Center
Tue 18:58:02 40.7428 -98.3469 67° East 466 536 37,000  Level Minneapolis Center
Tue 18:59:04 40.7919 -98.1917 67° East 464 534 37,000  Level Minneapolis Center
Tue 19:00:06 40.8500 -98.0053 68° East 461 531 37,000  Level Minneapolis Center
Tue 19:01:08 40.8983 -97.8483 68° East 462 532 37,000  Level Minneapolis Center
Tue 19:02:10 40.9469 -97.6931 67° East 461 531 37,000  Level Minneapolis Center
Tue 19:03:12 40.9942 -97.5358 68° East 460 529 37,000  Level Minneapolis Center
Tue 19:04:15 41.0486 -97.3606 68° East 460 529 37,000  Level Minneapolis Center
Tue 19:05:17 41.0964 -97.2017 68° East 463 533 37,000  Level Minneapolis Center
Tue 19:06:19 41.1506 -97.0469 65° Northeast 463 533 37,000  Level Minneapolis Center
Tue 19:07:21 41.2222 -96.9006 57° Northeast 467 537 37,000  Level Minneapolis Center
Tue 19:08:23 41.2947 -96.7558 56° Northeast 468 539 37,000  Level Minneapolis Center
Tue 19:09:25 41.3675 -96.6086 57° Northeast 474 545 37,000  Level Minneapolis Center
Tue 19:10:27 41.4383 -96.4589 58° Northeast 476 548 37,000  Level Minneapolis Center
Tue 19:11:29 41.4844 -96.2831 71° East 472 543 37,000  Level Minneapolis Center
Tue 19:12:31 41.5389 -96.0861 70° East 472 543 37,000  Level Minneapolis Center
Tue 19:13:33 41.5844 -95.9225 70° East 471 542 37,000  Level Minneapolis Center
Tue 19:14:35 41.6286 -95.7578 70° East 471 542 37,000  Level Minneapolis Center
Tue 19:15:37 41.6736 -95.5914 70° East 474 545 37,000  Level Minneapolis Center
Tue 19:16:40 41.7175 -95.4269 70° East 470 541 37,000  Level Minneapolis Center
Tue 19:17:42 41.7603 -95.2625 71° East 468 539 37,000  Level Minneapolis Center
Tue 19:18:44 41.8039 -95.0983 70° East 468 539 37,000  Level Minneapolis Center
Tue 19:19:46 41.8550 -94.9008 71° East 468 539 37,000  Level Minneapolis Center
Tue 19:20:48 41.8978 -94.7369 71° East 467 537 37,000  Level Minneapolis Center
Tue 19:21:50 41.9397 -94.5728 71° East 466 536 37,000  Level Minneapolis Center
Tue 19:22:52 41.9825 -94.4092 71° East 464 534 37,000  Level Minneapolis Center
Tue 19:23:54 42.0236 -94.2453 71° East 463 533 37,000  Level Minneapolis Center
Tue 19:24:56 42.0664 -94.0811 71° East 463 533 37,000  Level Minneapolis Center
Tue 19:25:58 42.1142 -93.8842 72° East 462 532 37,000  Level Minneapolis Center
Tue 19:27:00 42.1553 -93.7192 71° East 464 534 37,000  Level Minneapolis Center
Tue 19:28:02 42.1961 -93.5564 71° East 463 533 37,000  Level Minneapolis Center
Tue 19:29:04 42.2356 -93.3936 72° East 461 531 37,000  Level Minneapolis Center
Tue 19:30:06 42.2750 -93.2336 72° East 457 526 37,000 -96 Level Minneapolis Center
Tue 19:31:09 42.3147 -93.0708 72° East 461 531 36,800 -816 Descending Minneapolis Center
Tue 19:32:11 42.3614 -92.8739 72° East 465 535 35,300 -1,452 Descending Minneapolis Center
Tue 19:33:13 42.4006 -92.7083 72° East 466 536 33,800 -1,452 Descending Minneapolis Center
Tue 19:34:15 42.4383 -92.5453 73° East 463 533 32,300 -1,452 Descending Minneapolis Center
Tue 19:35:17 42.4769 -92.3828 72° East 460 529 30,800 -1,548 Descending Minneapolis Center
Tue 19:36:19 42.5233 -92.1847 72° East 463 533 29,100 -1,568 Descending Minneapolis Center
Tue 19:36:45 42.5372 -92.1178 74° East 465 535 28,500 -1,416 Descending Chicago Center
Tue 19:37:48 42.5747 -91.9569 72° East 454 522 27,000 -1,440 Descending Chicago Center
Tue 19:38:50 42.6111 -91.7981 73° East 449 517 25,500 -1,485 Descending Chicago Center
Tue 19:39:25 42.6322 -91.7061 73° East 444 511 24,600 -928 Descending Minneapolis Center
Tue 19:40:27 42.6714 -91.5289 73° East 427 491 24,000 -968 Descending Minneapolis Center
Tue 19:41:29 42.7025 -91.3875 73° East 414 476 22,600 -1,281 Descending Minneapolis Center
Tue 19:41:56 42.7164 -91.3358 70° East 394 453 22,100 -1,348 Descending Chicago Center
Tue 19:42:58 42.7458 -91.2008 73° East 380 437 20,600 -1,597 Descending Chicago Center
Tue 19:44:00 42.7817 -91.0375 73° East 381 438 18,800 -1,548 Descending Chicago Center
Tue 19:45:02 42.8114 -90.9025 73° East 378 435 17,400 -1,403 Descending Chicago Center
Tue 19:46:04 42.8397 -90.7711 74° East 368 423 15,900 -1,452 Descending Chicago Center
Tue 19:47:06 42.8681 -90.6422 73° East 360 414 14,400 -1,597 Descending Chicago Center
Tue 19:48:08 42.9000 -90.4917 74° East 350 403 12,600 -1,488 Descending Chicago Center
Tue 19:49:11 42.9258 -90.3697 74° East 341 392 11,300 -768 Descending Chicago Center
Tue 19:50:13 42.9497 -90.2519 74° East 329 379 11,000 -145 Descending Chicago Center
Tue 19:51:15 42.9753 -90.1331 74° East 331 381 11,000  Level Chicago Center
Tue 19:52:17 43.0014 -90.0108 74° East 338 389 11,000 -242 Level Chicago Center
Tue 19:53:19 43.0286 -89.8797 74° East 319 367 10,500 -1,065 Descending Chicago Center
Tue 19:54:21 43.0489 -89.7714 76° East 296 341 8,800 -1,887 Descending Chicago Center
Tue 19:55:23 43.0747 -89.6544 73° East 279 321 6,600 -1,355 Descending Chicago Center
Tue 19:56:25 43.0950 -89.5547 74° East 274 315 6,000 -387 Descending Chicago Center
Tue 19:57:27 43.1414 -89.4892 46° Northeast 270 311 5,800 -774 Descending Chicago Center
Tue 19:58:29 43.2075 -89.4597 18° North 254 292 4,400 -1,306 Descending Chicago Center
Tue 19:59:31 43.2572 -89.4161 33° Northeast 241 277 3,100 -919 Descending Chicago Center
Tue 20:00:33 43.2336 -89.3544 118° Southeast 201 231 2,500 -677 Descending Chicago Center
Tue 20:01:35 43.1858 -89.3392 167° South 164 189 1,700 -629 Descending Chicago Center
Tue 20:02:37 43.1483 -89.3406 182° South 152 175 1,200 -484 Descending Chicago Center

Login

Don't have an account? Register now (free) for customized features, flight alerts, and more!